Terminal Aerodrome Forecast
Issued by NWS Riverton, WY

Home | Current Version | Previous Version | Text Only | Print | Product List | Glossary On
Versions: 1 2 3 4 5 6 7 8 9 10 11 12 13
000
FTUS45 KRIW 280500
TAFRIW
TAF
KRIW 280538Z 2806/2906 32006KT P6SM SCT080
     FM282100 VRB10G17KT P6SM VCTS SCT040 BKN070CB
     FM290200 34008KT P6SM BKN060=

USA.gov is the U.S. government's official web portal to all federal, state and local government web resources and services.